Погода Абу-Дабина 2 недели

Абу-Даби, ОАЭ

15 - 28 июля
  • 15июля
    Сегодня
    +32°
    +38°
    Ясно и безоблачно
    ВремяПогодаТемператураВлажностьДавлениеВетер, м/сВероятность осадков
    01:00Ясно и безоблачно+34°C86 %745 мм3.0 м/с0 %
    04:00Небольшая облачность+34°C82 %745 мм1.7 м/с0 %
    07:00Практически безоблачно+34°C75 %746 мм1.6 м/с0 %
    10:00Ясно и безоблачно+36°C58 %746 мм3.4 м/с0 %
    13:00Ясно и безоблачно+38°C55 %746 мм5.0 м/с0 %
    16:00Ясно и безоблачно+37°C62 %745 мм5.0 м/с0 %
    19:00Ясно и безоблачно+35°C75 %745 мм5.2 м/с0 %
    22:00Практически безоблачно+34°C83 %746 мм2.9 м/с0 %
  • 16июля
    Вторник
    +34°
    +38°
    Небольшая облачность
    ВремяПогодаТемператураВлажностьДавлениеВетер, м/сВероятность осадков
    01:00Облачно с прояснениями+34°C90 %746 мм1.8 м/с0 %
    04:00Практически безоблачно+34°C93 %746 мм2.2 м/с0 %
    07:00Практически безоблачно+33°C89 %747 мм3.0 м/с0 %
    10:00Практически безоблачно+36°C66 %747 мм1.0 м/с0 %
    13:00Небольшая облачность+37°C66 %746 мм4.9 м/с0 %
    16:00Облачно с прояснениями+37°C70 %745 мм6.5 м/с0 %
    19:00Ясно и безоблачно+36°C80 %745 мм5.1 м/с0 %
    22:00Ясно и безоблачно+35°C85 %746 мм4.5 м/с0 %
  • 17июля
    Среда
    +34°
    +40°
    Ясно и безоблачно
    ВремяПогодаТемператураВлажностьДавлениеВетер, м/сВероятность осадков
    01:00Ясно и безоблачно+35°C87 %746 мм5.6 м/с0 %
    04:00Ясно и безоблачно+35°C85 %746 мм4.2 м/с0 %
    07:00Ясно и безоблачно+35°C75 %747 мм5.1 м/с0 %
    10:00Ясно и безоблачно+37°C57 %747 мм3.2 м/с0 %
    13:00Ясно и безоблачно+39°C57 %746 мм4.4 м/с0 %
    16:00Небольшая облачность+38°C64 %745 мм7.2 м/с0 %
    19:00Небольшая облачность+36°C73 %746 мм5.4 м/с0 %
    22:00Облачно с прояснениями+35°C74 %747 мм2.9 м/с0 %
  • 18июля
    Четверг
    +34°
    +39°
    Облачно с прояснениями
    ВремяПогодаТемператураВлажностьДавлениеВетер, м/сВероятность осадков
    01:00Облачно с прояснениями+35°C80 %745 мм4.0 м/с0 %
    04:00Облачно с прояснениями+35°C77 %745 мм5.6 м/с0 %
    07:00Небольшая облачность+35°C75 %745 мм2.9 м/с0 %
    10:00Облачно с прояснениями+37°C56 %746 мм3.4 м/с0 %
    13:00Облачно с прояснениями+39°C54 %745 мм6.2 м/с0 %
    16:00Практически безоблачно+38°C60 %744 мм6.5 м/с0 %
    19:00Небольшая облачность+36°C70 %744 мм4.9 м/с0 %
    22:00Практически безоблачно+35°C76 %745 мм3.9 м/с0 %
  • 19июля
    Пятница
    +33°
    +39°
    Небольшая облачность
    ВремяПогодаТемператураВлажностьДавлениеВетер, м/сВероятность осадков
    01:00Облачно с прояснениями+36°C75 %743 мм5.3 м/с0 %
    04:00Облачно с прояснениями+35°C74 %743 мм6.6 м/с0 %
    07:00Небольшая облачность+35°C72 %744 мм4.9 м/с0 %
    10:00Практически безоблачно+36°C60 %744 мм2.9 м/с0 %
    13:00Небольшая облачность+39°C55 %744 мм5.3 м/с0 %
    16:00Ясно и безоблачно+38°C60 %742 мм5.9 м/с0 %
    19:00Практически безоблачно+36°C74 %742 мм5.1 м/с0 %
    22:00Ясно и безоблачно+35°C84 %744 мм4.7 м/с0 %
Мы используем cookies
Соглашаюсь